^^
Station Historical Data
Daily Summary for September 13, 2018 Units:  English    Metric   Both
« Previous Day
Next Day »
Daily Weekly Monthly Yearly Custom
  High: Low: Average:
Temperature: TemperatureF °F 50.5 °F 67.7 °F
Dew Point: DewpointF °F 14 °F 24.5 °F
Humidity: Humidity % 7 % 22 %
Wind Speed: WindSpeedMPH mph 0 mph 6.8 mph
Wind Gust: WindSpeedGustMPH mph - -
Wind:- - SSE
Pressure: PressureIn in 29.67 in -
Precipitation: 0 in    
Historical Graphs
 
 
Tabular Data for September 13, 2018
Time Temperature Dew Point Pressure Wind Wind Speed Wind Gust Humidity Rainfall Rate (Hourly)
TemperatureF °F DewpointF °F PressureIn in Calm     Humidity % HourlyPrecipIn in
00:04 54.1 °F 27.1 °F 29.73 in SW 8.1 mph 12 mph 35 % 0 in
00:09 54.1 °F 26.4 °F 29.73 in South 8.9 mph 13 mph 34 % 0 in
00:14 54.1 °F 26.4 °F 29.74 in East 11 mph 16 mph 34 % 0 in
00:19 54.7 °F 25.3 °F 29.74 in SSW 8.1 mph 14 mph 32 % 0 in
00:24 55.6 °F 26.2 °F 29.74 in SW 8.1 mph 11 mph 32 % 0 in
00:29 54.9 °F 25.5 °F 29.75 in SSW 2.9 mph 7 mph 32 % 0 in
00:34 55.6 °F 24.6 °F 29.75 in West 2 mph 6 mph 30 % 0 in
00:39 57.2 °F 25.2 °F 29.75 in SSE 2 mph 7 mph 29 % 0 in
00:44 56.7 °F 25.5 °F 29.75 in SW 4.9 mph 6 mph 30 % 0 in
00:49 56.1 °F 25.9 °F 29.75 in SW 6 mph 8 mph 31 % 0 in
00:54 55.2 °F 25.2 °F 29.75 in SSW 8.1 mph 10 mph 31 % 0 in
00:59 55 °F 25.7 °F 29.75 in SSW 6 mph 8 mph 32 % 0 in
01:04 54.7 °F 25.3 °F 29.76 in SSW 8.9 mph 10 mph 32 % 0 in
01:09 54.3 °F 25.9 °F 29.76 in SW 6 mph 8 mph 33 % 0 in
01:14 54 °F 25.5 °F 29.76 in SSW 4.9 mph 12 mph 33 % 0 in
01:19 53.8 °F 26.1 °F 29.76 in SSE 6 mph 9 mph 34 % 0 in
01:24 53.4 °F 25.7 °F 29.76 in SW 8.9 mph 11 mph 34 % 0 in
01:29 53.2 °F 25.5 °F 29.76 in SSE 4.9 mph 10 mph 34 % 0 in
01:34 53.8 °F 25.3 °F 29.76 in SSW 6.9 mph 7 mph 33 % 0 in
01:39 54 °F 25.5 °F 29.77 in SW 4.9 mph 10 mph 33 % 0 in
01:44 53.2 °F 25.5 °F 29.77 in SSW 6.9 mph 10 mph 34 % 0 in
01:49 53.4 °F 25 °F 29.77 in South 4 mph 7 mph 33 % 0 in
01:54 53.8 °F 25.3 °F 29.77 in WSW 2.9 mph 4 mph 33 % 0 in
01:59 55 °F 25 °F 29.77 in South 6 mph 7 mph 31 % 0 in
02:04 55.8 °F 23.9 °F 29.77 in SSE 0.9 mph 5 mph 29 % 0 in
02:09 56.7 °F 24.8 °F 29.77 in SSE 2.9 mph 10 mph 29 % 0 in
02:14 57.4 °F 24.6 °F 29.77 in SSW 4 mph 7 mph 28 % 0 in
02:19 58.1 °F 25.2 °F 29.77 in South 10.1 mph 11 mph 28 % 0 in
02:24 57.6 °F 24.6 °F 29.77 in SW 8.1 mph 10 mph 28 % 0 in
02:29 56.1 °F 24.3 °F 29.77 in SSW 6.9 mph 12 mph 29 % 0 in
02:34 55.9 °F 25 °F 29.77 in SSE 12.1 mph 16 mph 30 % 0 in
02:39 54.9 °F 25.5 °F 29.77 in South 8.9 mph 15 mph 32 % 0 in
02:44 54.3 °F 25.2 °F 29.77 in SSE 11 mph 12 mph 32 % 0 in
02:49 55.8 °F 24.8 °F 29.77 in SSW 6.9 mph 10 mph 30 % 0 in
02:54 55.6 °F 25.3 °F 29.77 in SSW 8.9 mph 11 mph 31 % 0 in
02:59 55 °F 25.7 °F 29.77 in SSE 8.1 mph 10 mph 32 % 0 in
03:04 54.7 °F 25.3 °F 29.78 in WNW 10.1 mph 13 mph 32 % 0 in
03:09 53.8 °F 25.3 °F 29.78 in South 8.1 mph 11 mph 33 % 0 in
03:14 53.1 °F 25.3 °F 29.77 in SW 8.1 mph 12 mph 34 % 0 in
03:19 53.1 °F 25.3 °F 29.77 in South 8.1 mph 12 mph 34 % 0 in
03:24 53.1 °F 26.1 °F 29.78 in South 10.1 mph 13 mph 35 % 0 in
03:29 52.5 °F 25.7 °F 29.77 in SSW 10.1 mph 13 mph 35 % 0 in
03:34 53.4 °F 25 °F 29.77 in SSW 8.1 mph 11 mph 33 % 0 in
03:39 54 °F 25.5 °F 29.78 in SE 8.9 mph 12 mph 33 % 0 in
03:44 54 °F 25.5 °F 29.78 in SSW 4 mph 7 mph 33 % 0 in
03:49 54.3 °F 24.3 °F 29.78 in SSE 4.9 mph 9 mph 31 % 0 in
03:54 55.2 °F 24.3 °F 29.78 in SSW 8.9 mph 9 mph 30 % 0 in
03:59 56.3 °F 24.4 °F 29.78 in SSW 6 mph 10 mph 29 % 0 in
04:04 57.6 °F 24.6 °F 29.78 in WSW 8.1 mph 10 mph 28 % 0 in
04:09 57.7 °F 24.8 °F 29.78 in SSW 6 mph 13 mph 28 % 0 in
04:14 57 °F 24.3 °F 29.78 in WSW 8.1 mph 14 mph 28 % 0 in
04:19 57.6 °F 24.6 °F 29.78 in SW 10.1 mph 11 mph 28 % 0 in
04:24 56.8 °F 25 °F 29.78 in South 6.9 mph 11 mph 29 % 0 in
04:29 56.1 °F 25.2 °F 29.78 in SSW 8.1 mph 14 mph 30 % 0 in
04:34 55.6 °F 24.6 °F 29.77 in SSW 11 mph 12 mph 30 % 0 in
04:39 54.9 °F 25.5 °F 29.78 in SSE 13 mph 15 mph 32 % 0 in
04:44 54.1 °F 25 °F 29.78 in South 11 mph 17 mph 32 % 0 in
04:49 52.9 °F 25.3 °F 29.78 in SW 13 mph 16 mph 34 % 0 in
04:54 51.8 °F 24.3 °F 29.78 in SW 8.9 mph 17 mph 34 % 0 in
04:59 52 °F 25.2 °F 29.78 in SSW 8.9 mph 12 mph 35 % 0 in
05:04 52 °F 25.2 °F 29.79 in WSW 6.9 mph 11 mph 35 % 0 in
05:09 51.6 °F 24.1 °F 29.79 in ESE 6.9 mph 10 mph 34 % 0 in
05:14 52.3 °F 24.1 °F 29.79 in SSE 6.9 mph 10 mph 33 % 0 in
05:19 53.1 °F 24.8 °F 29.80 in SW 8.1 mph 10 mph 33 % 0 in
05:24 52.9 °F 23.9 °F 29.79 in South 10.1 mph 13 mph 32 % 0 in
05:29 53.4 °F 24.3 °F 29.80 in SSW 10.1 mph 13 mph 32 % 0 in
05:34 52 °F 24.4 °F 29.80 in SW 8.9 mph 13 mph 34 % 0 in
05:39 52 °F 24.4 °F 29.80 in SSW 10.1 mph 11 mph 34 % 0 in
05:44 51.4 °F 24.6 °F 29.80 in SSE 6.9 mph 13 mph 35 % 0 in
05:49 51.8 °F 25 °F 29.80 in SSW 6 mph 9 mph 35 % 0 in
05:54 51.4 °F 24.6 °F 29.80 in SSW 6 mph 9 mph 35 % 0 in
05:59 51.1 °F 25 °F 29.80 in South 6 mph 11 mph 36 % 0 in
06:04 50.5 °F 24.6 °F 29.80 in SW 8.1 mph 10 mph 36 % 0 in
06:09 51.4 °F 24.1 °F 29.80 in SW 8.9 mph 10 mph 34 % 0 in
06:14 54 °F 24.1 °F 29.80 in South 8.9 mph 12 mph 31 % 0 in
06:19 55.2 °F 24.3 °F 29.81 in SSW 6.9 mph 12 mph 30 % 0 in
06:24 55.8 °F 23.9 °F 29.81 in SSW 6 mph 12 mph 29 % 0 in
06:29 55.6 °F 23.9 °F 29.80 in South 10.1 mph 11 mph 29 % 0 in
06:34 54.5 °F 23.7 °F 29.81 in SSE 11 mph 12 mph 30 % 0 in
06:39 54.5 °F 24.4 °F 29.81 in South 6.9 mph 13 mph 31 % 0 in
06:44 54.3 °F 24.3 °F 29.81 in South 6.9 mph 10 mph 31 % 0 in
06:49 54.7 °F 23.9 °F 29.81 in SSW 8.1 mph 10 mph 30 % 0 in
06:54 55 °F 24.1 °F 29.81 in South 10.1 mph 12 mph 30 % 0 in
06:59 55.6 °F 24.6 °F 29.81 in South 6 mph 10 mph 30 % 0 in
07:04 55.8 °F 24.8 °F 29.81 in SW 8.1 mph 11 mph 30 % 0 in
07:09 56.8 °F 25 °F 29.81 in South 6.9 mph 10 mph 29 % 0 in
07:14 57.7 °F 24.8 °F 29.82 in SW 10.1 mph 10 mph 28 % 0 in
07:19 58.5 °F 24.6 °F 29.82 in SW 8.9 mph 10 mph 27 % 0 in
07:24 58.6 °F 24.8 °F 29.82 in SSW 6 mph 10 mph 27 % 0 in
07:29 58.6 °F 25.7 °F 29.82 in SW 10.1 mph 10 mph 28 % 0 in
07:34 58.8 °F 25.7 °F 29.82 in SW 8.1 mph 10 mph 28 % 0 in
07:39 59.4 °F 26.2 °F 29.82 in SSW 4.9 mph 10 mph 28 % 0 in
07:44 59.5 °F 26.4 °F 29.82 in SW 10.1 mph 10 mph 28 % 0 in
07:49 59.7 °F 26.6 °F 29.82 in SSW 4 mph 9 mph 28 % 0 in
07:54 60.6 °F 26.4 °F 29.82 in SE 6 mph 7 mph 27 % 0 in
07:59 61 °F 26.8 °F 29.82 in SE 8.1 mph 11 mph 27 % 0 in
08:04 61 °F 26.8 °F 29.82 in South 6.9 mph 9 mph 27 % 0 in
08:09 61.3 °F 27.1 °F 29.82 in South 8.1 mph 8 mph 27 % 0 in
08:14 61.5 °F 27.1 °F 29.81 in SSE 8.9 mph 10 mph 27 % 0 in
08:19 61.5 °F 28.9 °F 29.82 in SSW 4.9 mph 10 mph 29 % 0 in
08:24 61.5 °F 28.9 °F 29.81 in SSW 4 mph 8 mph 29 % 0 in
08:29 61.9 °F 30 °F 29.81 in WSW 6 mph 9 mph 30 % 0 in
08:34 62.4 °F 30.6 °F 29.81 in SSE 4.9 mph 7 mph 30 % 0 in
08:39 63.1 °F 32 °F 29.81 in SSE 2.9 mph 5 mph 31 % 0 in
08:44 64 °F 35.1 °F 29.81 in ENE 0.9 mph 2 mph 34 % 0 in
08:49 65.8 °F 34.3 °F 29.81 in ENE 2 mph 2 mph 31 % 0 in
08:54 67.3 °F 34 °F 29.80 in NE 0.9 mph 3 mph 29 % 0 in
08:59 67.3 °F 34 °F 29.80 in ENE 4 mph 4 mph 29 % 0 in
09:04 67.6 °F 33.4 °F 29.80 in ENE 2.9 mph 4 mph 28 % 0 in
09:09 68.7 °F 34.3 °F 29.80 in ENE 2 mph 2 mph 28 % 0 in
09:14 69.3 °F 32.9 °F 29.80 in ENE 2 mph 3 mph 26 % 0 in
09:19 70.2 °F 35.6 °F 29.80 in NE 0.9 mph 4 mph 28 % 0 in
09:24 71.4 °F 34.7 °F 29.80 in Calm   1 mph 26 % 0 in
09:29 71.8 °F 32 °F 29.80 in ENE 2.9 mph 3 mph 23 % 0 in
09:34 71.8 °F 30.9 °F 29.80 in ENE 6 mph 6 mph 22 % 0 in
09:39 73.2 °F 33.3 °F 29.80 in SE 2 mph 2 mph 23 % 0 in
09:44 73.8 °F 31.5 °F 29.79 in WNW 0.9 mph 5 mph 21 % 0 in
09:49 73.8 °F 32.5 °F 29.79 in North 0.9 mph 3 mph 22 % 0 in
09:54 74.1 °F 27.9 °F 29.79 in ENE 4 mph 4 mph 18 % 0 in
09:59 74.8 °F 27.1 °F 29.79 in SW 0.9 mph 4 mph 17 % 0 in
10:04 75.9 °F 29.3 °F 29.79 in SSE 4 mph 5 mph 18 % 0 in
10:09 76.3 °F 26.8 °F 29.79 in SSE 2 mph 9 mph 16 % 0 in
10:14 76.5 °F 25.3 °F 29.79 in SE 6 mph 6 mph 15 % 0 in
10:19 76.6 °F 27.1 °F 29.79 in ENE 2 mph 10 mph 16 % 0 in
10:24 77.4 °F 24.4 °F 29.79 in Calm   3 mph 14 % 0 in
10:29 77.7 °F 27.9 °F 29.79 in ENE 8.1 mph 8 mph 16 % 0 in
10:34 78.1 °F 25 °F 29.79 in SSE 8.9 mph 11 mph 14 % 0 in
10:39 77.7 °F 24.8 °F 29.78 in SSE 4 mph 8 mph 14 % 0 in
10:44 77.5 °F 24.6 °F 29.78 in ENE 10.1 mph 10 mph 14 % 0 in
10:49 77.4 °F 27.7 °F 29.78 in South 2 mph 13 mph 16 % 0 in
10:54 77.5 °F 26.2 °F 29.78 in ENE 4 mph 4 mph 15 % 0 in
10:59 78.3 °F 26.8 °F 29.78 in SSW 0.9 mph 5 mph 15 % 0 in
11:04 79.2 °F 27.5 °F 29.78 in East 2 mph 4 mph 15 % 0 in
11:09 79 °F 25.7 °F 29.78 in SSW 4 mph 6 mph 14 % 0 in
11:14 79.2 °F 25.9 °F 29.78 in East 0.9 mph 3 mph 14 % 0 in
11:19 79.5 °F 27.9 °F 29.78 in East 2 mph 9 mph 15 % 0 in
11:24 80.2 °F 26.8 °F 29.77 in ENE 6.9 mph 12 mph 14 % 0 in
11:29 78.6 °F 27.1 °F 29.77 in North 4.9 mph 18 mph 15 % 0 in
11:34 78.6 °F 27.1 °F 29.77 in ENE 8.1 mph 12 mph 15 % 0 in
11:39 79.2 °F 25.9 °F 29.77 in East 4.9 mph 8 mph 14 % 0 in
11:44 79.7 °F 26.2 °F 29.77 in ENE 6 mph 8 mph 14 % 0 in
11:49 80.1 °F 24.8 °F 29.77 in East 12.1 mph 12 mph 13 % 0 in
11:54 79.5 °F 26.1 °F 29.77 in ENE 6.9 mph 9 mph 14 % 0 in
11:59 79.5 °F 26.1 °F 29.77 in East 13 mph 13 mph 14 % 0 in
12:04 79.9 °F 26.4 °F 29.77 in ENE 10.1 mph 15 mph 14 % 0 in
12:09 80.2 °F 26.8 °F 29.77 in SE 2.9 mph 9 mph 14 % 0 in
12:14 80.8 °F 27.1 °F 29.76 in ENE 6 mph 9 mph 14 % 0 in
12:19 80.2 °F 25 °F 29.76 in East 2 mph 5 mph 13 % 0 in
12:24 81.5 °F 25.9 °F 29.76 in ESE 4 mph 9 mph 13 % 0 in
12:29 82.6 °F 26.8 °F 29.76 in Calm   3 mph 13 % 0 in
12:34 82 °F 26.4 °F 29.76 in ENE 10.1 mph 13 mph 13 % 0 in
12:39 82 °F 26.4 °F 29.76 in ENE 2 mph 7 mph 13 % 0 in
12:44 82.2 °F 26.4 °F 29.76 in SE 2 mph 12 mph 13 % 0 in
12:49 81.7 °F 26.1 °F 29.75 in ENE 8.9 mph 12 mph 13 % 0 in
12:54 81.9 °F 24.3 °F 29.75 in SSE 4.9 mph 14 mph 12 % 0 in
12:59 81.9 °F 24.3 °F 29.75 in ENE 17 mph 17 mph 12 % 0 in
13:04 80.8 °F 23.4 °F 29.74 in East 19.9 mph 23 mph 12 % 0 in
13:09 80.4 °F 23.2 °F 29.74 in ENE 8.9 mph 14 mph 12 % 0 in
13:14 82 °F 26.4 °F 29.74 in ENE 4.9 mph 7 mph 13 % 0 in
13:19 82.2 °F 24.6 °F 29.74 in ENE 6.9 mph 14 mph 12 % 0 in
13:24 81.9 °F 26.2 °F 29.73 in NE 2 mph 9 mph 13 % 0 in
13:29 82.6 °F 26.8 °F 29.73 in East 16.1 mph 18 mph 13 % 0 in
13:34 82 °F 28.2 °F 29.73 in ENE 10.1 mph 20 mph 14 % 0 in
13:39 81.1 °F 25.7 °F 29.73 in East 12.1 mph 21 mph 13 % 0 in
13:44 81.7 °F 27.9 °F 29.72 in East 2.9 mph 20 mph 14 % 0 in
13:49 82.2 °F 26.4 °F 29.72 in ENE 17.9 mph 18 mph 13 % 0 in
13:54 82 °F 28.2 °F 29.72 in ENE 19 mph 19 mph 14 % 0 in
13:59 81.5 °F 27.7 °F 29.72 in NE 8.9 mph 21 mph 14 % 0 in
14:04 81.5 °F 25.9 °F 29.72 in ENE 23 mph 27 mph 13 % 0 in
14:09 81.3 °F 27.5 °F 29.72 in ENE 10.1 mph 16 mph 14 % 0 in
14:14 80.8 °F 25.3 °F 29.72 in WNW 2.9 mph 10 mph 13 % 0 in
14:19 82 °F 26.4 °F 29.71 in NE 11 mph 15 mph 13 % 0 in
14:24 82.9 °F 25.2 °F 29.71 in SW 6 mph 20 mph 12 % 0 in
14:29 84.4 °F 26.2 °F 29.71 in WNW 4 mph 7 mph 12 % 0 in
14:34 85.1 °F 22.5 °F 29.71 in SE 4 mph 5 mph 10 % 0 in
14:39 85.3 °F 22.6 °F 29.71 in SE 2.9 mph 6 mph 10 % 0 in
14:44 84.9 °F 24.6 °F 29.71 in ENE 2 mph 5 mph 11 % 0 in
14:49 84.7 °F 24.4 °F 29.70 in WNW 12.1 mph 12 mph 11 % 0 in
14:54 83.7 °F 25.7 °F 29.71 in NW 2.9 mph 5 mph 12 % 0 in
14:59 84.7 °F 22.1 °F 29.70 in SW 8.1 mph 11 mph 10 % 0 in
15:04 85.3 °F 20.1 °F 29.70 in WSW 13 mph 17 mph 9 % 0 in
15:09 84.7 °F 19.6 °F 29.70 in SE 8.9 mph 13 mph 9 % 0 in
15:14 84.9 °F 19.8 °F 29.70 in SE 8.1 mph 20 mph 9 % 0 in
15:19 84.7 °F 19.6 °F 29.70 in ENE 6.9 mph 11 mph 9 % 0 in
15:24 84.7 °F 19.6 °F 29.70 in SE 4 mph 7 mph 9 % 0 in
15:29 84.6 °F 19.6 °F 29.69 in South 6 mph 7 mph 9 % 0 in
15:34 85.5 °F 20.1 °F 29.69 in SSE 13 mph 17 mph 9 % 0 in
15:39 85.8 °F 20.5 °F 29.69 in ESE 6.9 mph 7 mph 9 % 0 in
15:44 85.5 °F 17.4 °F 29.69 in SE 8.1 mph 9 mph 8 % 0 in
15:49 85.8 °F 20.5 °F 29.69 in ENE 6 mph 9 mph 9 % 0 in
15:54 85.3 °F 20.1 °F 29.68 in SE 4 mph 14 mph 9 % 0 in
15:59 84.9 °F 19.8 °F 29.68 in SE 2.9 mph 11 mph 9 % 0 in
16:04 85.5 °F 20.1 °F 29.68 in SSE 2.9 mph 7 mph 9 % 0 in
16:09 85.8 °F 17.8 °F 29.68 in WSW 6 mph 10 mph 8 % 0 in
16:14 86.2 °F 18 °F 29.68 in SSE 2 mph 9 mph 8 % 0 in
16:19 85.8 °F 20.5 °F 29.68 in East 4.9 mph 11 mph 9 % 0 in
16:24 84.9 °F 19.8 °F 29.67 in East 6 mph 15 mph 9 % 0 in
16:29 85.5 °F 20.1 °F 29.67 in SSE 2 mph 5 mph 9 % 0 in
16:34 85.5 °F 20.1 °F 29.67 in East 6 mph 15 mph 9 % 0 in
16:39 85.5 °F 20.1 °F 29.67 in ENE 11 mph 13 mph 9 % 0 in
16:44 85.3 °F 20.1 °F 29.67 in SE 0.9 mph 16 mph 9 % 0 in
16:49 85.5 °F 22.6 °F 29.67 in SSE 2 mph 8 mph 10 % 0 in
16:54 85.6 °F 17.6 °F 29.67 in ESE 2 mph 6 mph 8 % 0 in
16:59 85.1 °F 22.5 °F 29.67 in ENE 2.9 mph 10 mph 10 % 0 in
17:03 85.3 °F 20.1 °F 29.67 in SE 4.9 mph 10 mph 9 % 0 in
17:08 85.3 °F 17.2 °F 29.67 in ENE 6.9 mph 11 mph 8 % 0 in
17:14 85.3 °F 14.2 °F 29.67 in East 6 mph 9 mph 7 % 0 in
17:19 85.3 °F 14.2 °F 29.67 in SE 4 mph 16 mph 7 % 0 in
17:24 85.5 °F 17.4 °F 29.67 in ENE 4 mph 4 mph 8 % 0 in
17:29 84.9 °F 17.1 °F 29.67 in ENE 2.9 mph 7 mph 8 % 0 in
17:34 85.5 °F 14.4 °F 29.67 in SE 4.9 mph 6 mph 7 % 0 in
17:39 84.9 °F 14 °F 29.67 in ENE 4 mph 6 mph 7 % 0 in
17:40 84.7 °F 16.9 °F 29.67 in ENE 4 mph 5 mph 8 % 0 in
17:49 84.9 °F 17.1 °F 29.67 in East 2 mph 10 mph 8 % 0 in
17:53 84.6 °F 19.6 °F 29.67 in SSW 2 mph 7 mph 9 % 0 in
17:55 84.6 °F 21.9 °F 29.67 in NE 8.9 mph 9 mph 10 % 0 in
18:04 81.9 °F 26.2 °F 29.67 in NW 8.9 mph 18 mph 13 % 0 in
18:09 81.1 °F 25.7 °F 29.67 in NW 6 mph 16 mph 13 % 0 in
18:11 81.1 °F 25.7 °F 29.68 in North 10.1 mph 17 mph 13 % 0 in
21:34 71.8 °F 19.9 °F 29.78 in WSW 6.9 mph 8 mph 14 % 0 in
21:39 71.8 °F 18.3 °F 29.77 in SW 8.1 mph 13 mph 13 % 0 in
21:44 72.1 °F 18.5 °F 29.78 in WSW 8.9 mph 17 mph 13 % 0 in
21:54 72.1 °F 18.5 °F 29.77 in SW 6.9 mph 14 mph 13 % 0 in
21:59 71.8 °F 19.9 °F 29.78 in West 8.1 mph 8 mph 14 % 0 in
22:04 71.4 °F 18 °F 29.78 in West 8.1 mph 9 mph 13 % 0 in
22:09 71.1 °F 21 °F 29.78 in SW 6.9 mph 13 mph 15 % 0 in
22:14 68.5 °F 20.5 °F 29.78 in WSW 11 mph 13 mph 16 % 0 in
22:19 68.2 °F 23 °F 29.78 in SW 4 mph 7 mph 18 % 0 in
22:20 67.5 °F 21.2 °F 29.78 in SSE 6.9 mph 8 mph 17 % 0 in
22:29 64 °F 22.1 °F 29.78 in SSW 8.1 mph 12 mph 20 % 0 in
22:34 62.4 °F 21.9 °F 29.78 in ESE 6 mph 9 mph 21 % 0 in
22:39 61.5 °F 23.4 °F 29.78 in ESE 10.1 mph 12 mph 23 % 0 in
22:44 60.1 °F 23.2 °F 29.78 in South 8.1 mph 12 mph 24 % 0 in
22:49 59.4 °F 21.6 °F 29.79 in SSW 10.1 mph 13 mph 23 % 0 in
22:54 59.5 °F 21.7 °F 29.79 in SSE 8.9 mph 11 mph 23 % 0 in
22:59 59.5 °F 21.7 °F 29.79 in WSW 8.9 mph 13 mph 23 % 0 in
23:04 60.1 °F 21 °F 29.79 in SSW 6 mph 13 mph 22 % 0 in
23:09 59.4 °F 22.6 °F 29.79 in SW 12.1 mph 15 mph 24 % 0 in
23:14 58.5 °F 22.8 °F 29.79 in SW 11 mph 12 mph 25 % 0 in
23:19 57 °F 23.4 °F 29.79 in South 13 mph 17 mph 27 % 0 in
23:24 55.9 °F 23.4 °F 29.79 in South 15 mph 18 mph 28 % 0 in
23:29 55.8 °F 22.3 °F 29.79 in SSW 12.1 mph 18 mph 27 % 0 in
23:34 56.1 °F 21.7 °F 29.80 in SSE 10.1 mph 13 mph 26 % 0 in
23:39 56.8 °F 21.4 °F 29.80 in SSW 8.1 mph 13 mph 25 % 0 in
23:44 57.2 °F 21.7 °F 29.80 in SSW 10.1 mph 13 mph 25 % 0 in
23:49 57 °F 21.6 °F 29.80 in South 12.1 mph 13 mph 25 % 0 in
23:54 57 °F 21.6 °F 29.80 in SSW 6.9 mph 13 mph 25 % 0 in
23:59 57.9 °F 21.4 °F 29.80 in South 13 mph 14 mph 24 % 0 in
Evergreen Colorado, USA
Compliments of Weather Underground - 3.25 mb